createdAt,value
2019-04-18T00:02:04.828Z,100.00
2019-04-18T00:04:41.230Z,100.00
2019-04-18T00:07:09.612Z,100.00
2019-04-18T00:09:39.587Z,100.00
2019-04-18T00:12:08.404Z,100.00
2019-04-18T00:14:49.704Z,100.00
2019-04-18T00:17:07.550Z,100.00
2019-04-18T00:19:35.867Z,100.00
2019-04-18T00:22:04.361Z,100.00
2019-04-18T00:24:34.472Z,100.00
2019-04-18T00:27:03.005Z,100.00
2019-04-18T00:29:31.316Z,100.00
2019-04-18T00:32:00.007Z,100.00
2019-04-18T00:34:28.863Z,100.00
2019-04-18T00:36:57.467Z,100.00
2019-04-18T00:39:25.858Z,100.00
2019-04-18T00:41:54.216Z,100.00
2019-04-18T00:44:24.493Z,100.00
2019-04-18T00:46:52.820Z,100.00
2019-04-18T00:49:21.110Z,100.00
2019-04-18T00:51:49.423Z,100.00
2019-04-18T00:54:17.723Z,100.00
2019-04-18T00:56:46.036Z,100.00
2019-04-18T00:59:14.337Z,100.00
2019-04-18T01:01:45.365Z,100.00
2019-04-18T01:04:25.823Z,100.00
2019-04-18T01:06:42.912Z,100.00
2019-04-18T01:09:15.848Z,100.00
2019-04-18T01:11:44.217Z,100.00
2019-04-18T01:14:16.189Z,100.00
2019-04-18T01:16:42.600Z,100.00
2019-04-18T01:19:11.650Z,100.00
2019-04-18T01:21:40.051Z,100.00
2019-04-18T01:24:08.758Z,100.00
2019-04-18T01:26:37.107Z,100.00
2019-04-18T01:29:06.584Z,100.00
2019-04-18T01:31:35.323Z,100.00
2019-04-18T01:34:07.140Z,100.00
2019-04-18T01:36:34.024Z,100.00
2019-04-18T01:39:02.392Z,100.00
2019-04-18T01:41:38.121Z,100.00
2019-04-18T01:44:12.805Z,100.00
2019-04-18T01:46:40.198Z,100.00
2019-04-18T01:49:10.941Z,100.00
2019-04-18T01:51:38.552Z,100.00
2019-04-18T01:54:09.886Z,100.00
2019-04-18T01:56:36.931Z,100.00
2019-04-18T01:59:07.569Z,100.00
2019-04-18T02:01:35.503Z,100.00
2019-04-18T02:04:08.082Z,100.00
2019-04-18T02:06:33.910Z,100.00
2019-04-18T02:09:02.517Z,100.00
2019-04-18T02:11:34.756Z,100.00
2019-04-18T02:14:01.864Z,100.00
2019-04-18T02:16:30.194Z,100.00
2019-04-18T02:18:58.559Z,100.00
2019-04-18T02:21:26.890Z,100.00
2019-04-18T02:23:56.108Z,100.00
2019-04-18T02:26:25.275Z,100.00
2019-04-18T02:28:53.956Z,100.00
2019-04-18T02:31:22.252Z,100.00
2019-04-18T02:33:50.574Z,100.00
2019-04-18T02:36:18.875Z,100.00
2019-04-18T02:38:49.446Z,100.00
2019-04-18T02:41:17.516Z,100.00
2019-04-18T02:43:45.839Z,100.00
2019-04-18T02:46:14.286Z,100.00
2019-04-18T02:48:42.575Z,100.00
2019-04-18T02:51:16.062Z,100.00
2019-04-18T02:53:40.965Z,100.00
2019-04-18T02:56:14.051Z,100.00
2019-04-18T02:58:46.896Z,100.00
2019-04-18T03:01:19.835Z,100.00
2019-04-18T03:03:52.573Z,100.00
2019-04-18T03:06:21.283Z,100.00
2019-04-18T03:08:49.853Z,100.00
2019-04-18T03:11:19.760Z,100.00
2019-04-18T03:13:48.127Z,100.00
2019-04-18T03:16:16.446Z,100.00
2019-04-18T03:18:44.743Z,100.00
2019-04-18T03:21:13.432Z,100.00
2019-04-18T03:23:41.813Z,100.00
2019-04-18T03:26:10.493Z,100.00
2019-04-18T03:28:39.075Z,100.00
2019-04-18T03:31:20.302Z,100.00
2019-04-18T03:33:37.444Z,100.00
2019-04-18T03:36:05.830Z,100.00
2019-04-18T03:38:34.133Z,100.00
2019-04-18T03:41:02.494Z,100.00
2019-04-18T03:43:31.729Z,100.00
2019-04-18T03:46:01.712Z,100.00
2019-04-18T03:48:30.328Z,100.00
2019-04-18T03:50:58.626Z,100.00
2019-04-18T03:53:29.949Z,100.00
2019-04-18T03:55:57.221Z,100.00
2019-04-18T03:58:25.526Z,100.00
2019-04-18T04:00:57.310Z,100.00
2019-04-18T04:03:23.867Z,100.00
2019-04-18T04:06:04.455Z,100.00
2019-04-18T04:08:22.186Z,100.00
2019-04-18T04:10:50.502Z,100.00
2019-04-18T04:13:18.828Z,100.00
2019-04-18T04:15:50.385Z,100.00
2019-04-18T04:18:38.921Z,100.00
2019-04-18T04:21:06.567Z,100.00
2019-04-18T04:23:34.866Z,100.00
2019-04-18T04:26:03.731Z,100.00
2019-04-18T04:28:32.245Z,100.00
2019-04-18T04:31:00.619Z,100.00
2019-04-18T04:33:33.665Z,100.00
2019-04-18T04:36:01.698Z,100.00
2019-04-18T04:38:29.668Z,100.00
2019-04-18T04:40:58.898Z,100.00
2019-04-18T04:43:28.130Z,100.00
2019-04-18T04:45:56.446Z,100.00
2019-04-18T04:48:28.560Z,100.00
2019-04-18T04:51:18.654Z,100.00
2019-04-18T04:53:51.396Z,100.00
2019-04-18T04:56:38.373Z,100.00
2019-04-18T04:59:14.751Z,100.00
2019-04-18T05:01:43.685Z,100.00
2019-04-18T05:04:12.056Z,100.00
2019-04-18T05:06:43.487Z,100.00
2019-04-18T05:09:10.871Z,100.00
2019-04-18T05:11:39.179Z,100.00
2019-04-18T05:14:07.552Z,100.00
2019-04-18T05:16:53.943Z,100.00
2019-04-18T05:19:26.150Z,100.00
2019-04-18T05:21:54.456Z,100.00
2019-04-18T05:24:25.449Z,100.00
2019-04-18T05:26:54.363Z,100.00
2019-04-18T05:29:22.675Z,100.00
2019-04-18T05:31:54.057Z,100.00
2019-04-18T05:34:21.062Z,100.00
2019-04-18T05:36:56.453Z,100.00
2019-04-18T05:39:19.863Z,100.00
2019-04-18T05:41:48.149Z,100.00
2019-04-18T05:44:16.538Z,100.00
2019-04-18T05:46:46.480Z,100.00
2019-04-18T05:49:16.450Z,100.00
2019-04-18T05:52:04.531Z,100.00
2019-04-18T05:54:42.319Z,100.00
2019-04-18T05:57:07.544Z,100.00
2019-04-18T05:59:40.410Z,100.00
2019-04-18T06:02:23.879Z,100.00
2019-04-18T06:04:56.716Z,100.00
2019-04-18T06:07:32.982Z,100.00
2019-04-18T06:10:01.282Z,100.00
2019-04-18T06:12:34.183Z,100.00
2019-04-18T06:15:17.528Z,100.00
2019-04-18T06:17:56.939Z,100.00
2019-04-18T06:20:30.137Z,100.00
2019-04-18T06:22:59.357Z,100.00
2019-04-18T06:25:47.648Z,100.00
2019-04-18T06:28:18.574Z,100.00
2019-04-18T06:30:50.272Z,100.00
2019-04-18T06:33:38.571Z,100.00
2019-04-18T06:36:07.537Z,100.00
2019-04-18T06:38:35.932Z,100.00
2019-04-18T06:41:05.567Z,100.00
2019-04-18T06:43:34.487Z,100.00
2019-04-18T06:46:02.778Z,100.00
2019-04-18T06:48:35.410Z,100.00
2019-04-18T06:51:01.284Z,100.00
2019-04-18T06:53:29.580Z,100.00
2019-04-18T06:55:57.921Z,100.00
2019-04-18T06:58:35.374Z,100.00
2019-04-18T07:00:59.129Z,97.80
2019-04-18T07:03:26.516Z,100.00
2019-04-18T07:05:55.068Z,97.73
2019-04-18T07:08:27.535Z,98.93
2019-04-18T07:11:03.590Z,98.28
2019-04-18T07:13:32.286Z,97.51
2019-04-18T07:16:00.608Z,97.85
2019-04-18T07:18:29.787Z,94.85
2019-04-18T07:21:06.479Z,95.39
2019-04-18T07:23:42.367Z,92.89
2019-04-18T07:26:11.149Z,94.16
2019-04-18T07:28:49.167Z,91.65
2019-04-18T07:31:09.693Z,92.28
2019-04-18T07:33:38.386Z,93.12
2019-04-18T07:36:07.504Z,93.49
2019-04-18T07:38:36.175Z,92.36
2019-04-18T07:41:05.791Z,89.93
2019-04-18T07:43:35.000Z,87.85
2019-04-18T07:46:05.605Z,88.25
2019-04-18T07:48:35.209Z,87.39
2019-04-18T07:51:05.111Z,85.76
2019-04-18T07:53:33.715Z,84.10
2019-04-18T07:56:03.314Z,82.53
2019-04-18T07:58:33.398Z,81.36
2019-04-18T08:01:03.096Z,78.32
2019-04-18T08:03:40.178Z,77.69
2019-04-18T08:06:01.516Z,76.44
2019-04-18T08:08:29.806Z,73.34
2019-04-18T08:10:58.123Z,71.63
2019-04-18T08:13:26.835Z,68.50
2019-04-18T08:15:55.651Z,66.81
2019-04-18T08:18:27.167Z,63.72
2019-04-18T08:20:54.213Z,62.55
2019-04-18T08:23:33.236Z,62.56
2019-04-18T08:25:54.995Z,61.07
2019-04-18T08:28:23.115Z,60.17
2019-04-18T08:30:51.415Z,59.73
2019-04-18T08:33:19.734Z,58.57
2019-04-18T08:35:52.681Z,58.01
2019-04-18T08:38:34.674Z,57.98
2019-04-18T08:41:10.595Z,57.87
2019-04-18T08:43:57.179Z,55.85
2019-04-18T08:46:30.317Z,54.62
2019-04-18T08:49:03.197Z,54.58
2019-04-18T08:51:33.130Z,53.33
2019-04-18T08:54:08.546Z,53.21
2019-04-18T08:56:43.533Z,53.21
2019-04-18T08:59:13.563Z,52.13
2019-04-18T09:01:41.921Z,51.19
2019-04-18T09:04:10.235Z,51.23
2019-04-18T09:06:38.747Z,50.86
2019-04-18T09:09:08.258Z,51.45
2019-04-18T09:11:37.889Z,52.13
2019-04-18T09:14:08.771Z,52.48
2019-04-18T09:16:37.649Z,52.86
2019-04-18T09:19:06.806Z,52.44
2019-04-18T09:21:36.360Z,53.34
2019-04-18T09:24:05.562Z,52.17
2019-04-18T09:26:34.734Z,53.82
2019-04-18T09:29:04.824Z,54.75
2019-04-18T09:31:33.196Z,57.21
2019-04-18T09:34:01.888Z,53.87
2019-04-18T09:36:31.229Z,51.28
2019-04-18T09:39:00.683Z,50.10
2019-04-18T09:41:32.175Z,50.47
2019-04-18T09:43:59.098Z,50.68
2019-04-18T09:46:27.552Z,49.90
2019-04-18T09:48:55.918Z,49.94
2019-04-18T09:51:26.968Z,49.94
2019-04-18T09:53:54.734Z,49.72
2019-04-18T09:56:23.166Z,50.24
2019-04-18T09:58:51.464Z,48.63
2019-04-18T10:01:19.916Z,47.30
2019-04-18T10:03:48.291Z,46.30
2019-04-18T10:06:16.739Z,45.83
2019-04-18T10:08:45.067Z,47.03
2019-04-18T10:11:15.472Z,48.84
2019-04-18T10:13:43.817Z,48.31
2019-04-18T10:16:12.427Z,46.05
2019-04-18T10:18:40.957Z,46.55
2019-04-18T10:21:13.816Z,45.22
2019-04-18T10:23:41.352Z,46.58
2019-04-18T10:26:29.163Z,44.89
2019-04-18T10:28:58.427Z,44.63
2019-04-18T10:31:28.438Z,44.72
2019-04-18T10:33:56.754Z,45.48
2019-04-18T10:36:27.915Z,43.76
2019-04-18T10:38:55.155Z,44.66
2019-04-18T10:41:23.829Z,45.08
2019-04-18T10:43:52.223Z,44.80
2019-04-18T10:46:20.682Z,43.91
2019-04-18T10:48:49.235Z,43.58
2019-04-18T10:51:17.970Z,42.66
2019-04-18T10:53:46.359Z,41.71
2019-04-18T10:56:14.723Z,42.85
2019-04-18T10:58:43.106Z,41.92
2019-04-18T11:01:13.844Z,43.29
2019-04-18T11:03:41.822Z,44.00
2019-04-18T11:06:20.002Z,43.38
2019-04-18T11:08:40.158Z,42.92
2019-04-18T11:11:08.534Z,43.99
2019-04-18T11:13:37.095Z,42.08
2019-04-18T11:16:05.412Z,42.13
2019-04-18T11:18:33.713Z,43.77
2019-04-18T11:21:02.092Z,44.11
2019-04-18T11:23:30.474Z,43.84
2019-04-18T11:25:58.775Z,45.20
2019-04-18T11:28:27.194Z,43.04
2019-04-18T11:30:59.504Z,44.63
2019-04-18T11:33:25.527Z,42.86
2019-04-18T11:35:54.014Z,43.94
2019-04-18T11:38:22.283Z,42.78
2019-04-18T11:40:50.606Z,41.76
2019-04-18T11:43:19.214Z,40.36
2019-04-18T11:45:47.907Z,40.88
2019-04-18T11:48:16.234Z,40.88
2019-04-18T11:50:44.542Z,40.09
2019-04-18T11:53:13.145Z,38.39
2019-04-18T11:55:42.901Z,39.13
2019-04-18T11:58:11.196Z,38.97
2019-04-18T12:00:43.713Z,39.08
2019-04-18T12:03:13.720Z,36.45
2019-04-18T12:05:42.111Z,36.53
2019-04-18T12:08:10.779Z,37.13
2019-04-18T12:10:39.100Z,37.25
2019-04-18T12:13:08.299Z,37.11
2019-04-18T12:15:36.625Z,39.77
2019-04-18T12:18:05.026Z,40.22
2019-04-18T12:20:33.317Z,40.40
2019-04-18T12:23:06.188Z,39.50
2019-04-18T12:25:31.711Z,36.68
2019-04-18T12:28:00.888Z,36.38
2019-04-18T12:30:29.472Z,37.36
2019-04-18T12:32:57.821Z,37.59
2019-04-18T12:35:26.176Z,37.43
2019-04-18T12:37:54.922Z,36.89
2019-04-18T12:40:23.815Z,38.58
2019-04-18T12:42:52.183Z,35.94
2019-04-18T12:45:21.382Z,34.65
2019-04-18T12:47:50.110Z,34.30
2019-04-18T12:50:18.544Z,34.82
2019-04-18T12:52:46.898Z,37.73
2019-04-18T12:55:15.871Z,37.42
2019-04-18T12:57:44.398Z,35.25
2019-04-18T13:00:14.299Z,34.85
2019-04-18T13:02:43.255Z,33.91
2019-04-18T13:05:12.141Z,32.98
2019-04-18T13:07:45.531Z,34.03
2019-04-18T13:10:21.575Z,34.50
2019-04-18T13:12:54.163Z,34.11
2019-04-18T13:15:29.707Z,34.41
2019-04-18T13:18:00.178Z,32.98
2019-04-18T13:20:28.759Z,31.94
2019-04-18T13:22:57.845Z,34.46
2019-04-18T13:25:26.475Z,32.17
2019-04-18T13:27:54.896Z,33.97
2019-04-18T13:30:23.726Z,33.97
2019-04-18T13:32:52.142Z,33.96
2019-04-18T13:35:20.690Z,33.64
2019-04-18T13:37:49.064Z,31.49
2019-04-18T13:40:17.859Z,34.96
2019-04-18T13:42:46.302Z,34.08
2019-04-18T13:45:15.250Z,32.81
2019-04-18T13:47:45.569Z,33.96
2019-04-18T13:50:14.372Z,34.67
2019-04-18T13:52:46.472Z,32.57
2019-04-18T13:55:14.431Z,35.39
2019-04-18T13:57:42.853Z,34.34
2019-04-18T14:00:12.335Z,36.00
2019-04-18T14:02:40.743Z,34.12
2019-04-18T14:05:10.139Z,35.89
2019-04-18T14:07:38.706Z,32.51
2019-04-18T14:10:07.146Z,33.43
2019-04-18T14:12:35.634Z,32.06
2019-04-18T14:15:09.374Z,32.69
2019-04-18T14:17:37.848Z,33.30
2019-04-18T14:20:06.637Z,31.40
2019-04-18T14:22:38.769Z,31.51
2019-04-18T14:25:09.221Z,31.51
2019-04-18T14:27:37.844Z,31.72
2019-04-18T14:30:07.633Z,32.87
2019-04-18T14:32:36.044Z,32.56
2019-04-18T14:35:05.605Z,31.87
2019-04-18T14:37:34.143Z,33.09
2019-04-18T14:40:03.276Z,32.44
2019-04-18T14:42:31.619Z,30.65
2019-04-18T14:45:00.837Z,32.42
2019-04-18T14:47:29.961Z,32.13
2019-04-18T14:49:58.643Z,31.73
2019-04-18T14:52:27.074Z,33.03
2019-04-18T14:54:56.128Z,32.22
2019-04-18T14:57:24.895Z,32.90
2019-04-18T14:59:53.271Z,31.99
2019-04-18T15:02:21.626Z,32.38
2019-04-18T15:04:50.144Z,30.92
2019-04-18T15:07:18.567Z,30.33
2019-04-18T15:09:48.626Z,33.24
2019-04-18T15:12:17.063Z,31.26
2019-04-18T15:14:45.409Z,31.10
2019-04-18T15:17:13.781Z,29.95
2019-04-18T15:19:42.125Z,31.55
2019-04-18T15:22:13.896Z,32.44
2019-04-18T15:24:41.023Z,32.81
2019-04-18T15:27:09.425Z,33.98
2019-04-18T15:29:37.881Z,32.69
2019-04-18T15:32:06.398Z,30.36
2019-04-18T15:34:34.824Z,31.75
2019-04-18T15:37:03.504Z,33.84
2019-04-18T15:39:31.874Z,34.29
2019-04-18T15:42:00.300Z,32.59
2019-04-18T15:44:28.789Z,31.03
2019-04-18T15:47:01.753Z,30.67
2019-04-18T15:49:30.113Z,32.19
2019-04-18T15:51:58.614Z,32.65
2019-04-18T15:54:27.031Z,33.10
2019-04-18T15:56:55.495Z,32.23
2019-04-18T15:59:24.401Z,30.98
2019-04-18T16:01:53.512Z,30.80
2019-04-18T16:04:21.979Z,30.30
2019-04-18T16:06:50.392Z,32.45
2019-04-18T16:09:18.908Z,32.05
2019-04-18T16:11:47.316Z,32.99
2019-04-18T16:14:25.074Z,30.17
2019-04-18T16:16:53.423Z,32.30
2019-04-18T16:19:21.863Z,32.86
2019-04-18T16:21:50.206Z,32.97
2019-04-18T16:24:20.490Z,31.92
2019-04-18T16:26:48.839Z,33.93
2019-04-18T16:29:17.231Z,33.04
2019-04-18T16:31:45.604Z,33.41
2019-04-18T16:34:14.555Z,32.47
2019-04-18T16:36:43.245Z,32.59
2019-04-18T16:39:11.600Z,31.84
2019-04-18T16:41:40.010Z,32.36
2019-04-18T16:44:08.375Z,33.94
2019-04-18T16:46:36.729Z,33.45
2019-04-18T16:49:05.718Z,33.87
2019-04-18T16:51:34.129Z,34.15
2019-04-18T16:54:02.504Z,35.00
2019-04-18T16:56:30.921Z,33.86
2019-04-18T16:58:59.361Z,33.12
2019-04-18T17:01:27.712Z,33.06
2019-04-18T17:04:11.506Z,31.20
2019-04-18T17:06:26.320Z,34.99
2019-04-18T17:08:55.059Z,34.02
2019-04-18T17:11:23.492Z,32.92
2019-04-18T17:13:52.333Z,33.74
2019-04-18T17:16:22.030Z,35.39
2019-04-18T17:18:50.445Z,34.44
2019-04-18T17:21:18.795Z,35.31
2019-04-18T17:23:47.626Z,35.48
2019-04-18T17:26:16.314Z,35.07
2019-04-18T17:28:44.702Z,36.73
2019-04-18T17:31:14.691Z,36.81
2019-04-18T17:33:43.175Z,36.32
2019-04-18T17:36:25.495Z,37.80
2019-04-18T17:38:59.423Z,37.87
2019-04-18T17:41:18.735Z,38.05
2019-04-18T17:43:46.538Z,39.30
2019-04-18T17:46:18.671Z,38.70
2019-04-18T17:48:46.147Z,41.53
2019-04-18T17:51:25.004Z,41.53
2019-04-18T17:53:52.787Z,42.72
2019-04-18T17:56:23.589Z,43.46
2019-04-18T17:58:46.731Z,43.53
2019-04-18T18:01:15.489Z,44.28
2019-04-18T18:03:48.039Z,44.63
2019-04-18T18:06:21.009Z,45.44
2019-04-18T18:08:50.092Z,45.36
2019-04-18T18:11:16.453Z,45.28
2019-04-18T18:13:45.544Z,46.26
2019-04-18T18:16:22.795Z,46.27
2019-04-18T18:18:47.948Z,46.56
2019-04-18T18:21:18.329Z,47.42
2019-04-18T18:23:50.406Z,47.30
2019-04-18T18:26:23.702Z,48.04
2019-04-18T18:28:48.674Z,48.91
2019-04-18T18:31:21.189Z,48.62
2019-04-18T18:33:56.682Z,47.86
2019-04-18T18:36:27.466Z,48.88
2019-04-18T18:38:55.696Z,48.77
2019-04-18T18:41:24.039Z,49.50
2019-04-18T18:43:59.087Z,49.33
2019-04-18T18:46:23.719Z,50.72
2019-04-18T18:48:55.583Z,49.87
2019-04-18T18:51:23.868Z,50.71
2019-04-18T18:53:53.426Z,50.62
2019-04-18T18:56:24.274Z,50.64
2019-04-18T18:58:55.191Z,51.50
2019-04-18T19:01:27.612Z,51.04
2019-04-18T19:03:52.673Z,51.15
2019-04-18T19:06:26.118Z,51.27
2019-04-18T19:09:12.036Z,51.69
2019-04-18T19:11:38.426Z,51.70
2019-04-18T19:14:06.109Z,51.86
2019-04-18T19:16:34.985Z,51.64
2019-04-18T19:18:53.069Z,52.62
2019-04-18T19:21:22.940Z,53.19
2019-04-18T19:23:51.829Z,52.66
2019-04-18T19:26:25.696Z,53.39
2019-04-18T19:29:02.575Z,53.52
2019-04-18T19:31:22.854Z,52.83
2019-04-18T19:33:51.135Z,53.93
2019-04-18T19:36:39.266Z,53.34
2019-04-18T19:39:07.241Z,53.48
2019-04-18T19:41:32.296Z,53.67
2019-04-18T19:43:50.253Z,53.77
2019-04-18T19:46:21.337Z,54.84
2019-04-18T19:48:49.247Z,54.45
2019-04-18T19:51:18.264Z,53.55
2019-04-18T19:53:53.698Z,53.87
2019-04-18T19:56:18.390Z,53.78
2019-04-18T19:58:47.314Z,54.36
2019-04-18T20:01:17.156Z,54.65
2019-04-18T20:03:46.588Z,55.40
2019-04-18T20:06:28.123Z,55.44
2019-04-18T20:08:59.935Z,56.20
2019-04-18T20:11:25.167Z,56.44
2019-04-18T20:13:54.351Z,56.29
2019-04-18T20:16:16.186Z,55.87
2019-04-18T20:18:45.466Z,55.44
2019-04-18T20:21:14.098Z,56.20
2019-04-18T20:23:43.825Z,56.49
2019-04-18T20:26:13.741Z,56.40
2019-04-18T20:28:46.032Z,56.07
2019-04-18T20:31:17.001Z,56.54
2019-04-18T20:33:42.757Z,56.51
2019-04-18T20:36:31.206Z,55.82
2019-04-18T20:39:07.572Z,56.72
2019-04-18T20:41:52.297Z,57.23
2019-04-18T20:44:00.539Z,57.61
2019-04-18T20:49:06.925Z,57.45
2019-04-18T20:51:13.042Z,58.09
2019-04-18T20:54:03.321Z,58.16
2019-04-18T20:56:12.497Z,58.76
2019-04-18T20:58:41.839Z,58.25
2019-04-18T21:01:10.707Z,56.32
2019-04-18T21:03:40.910Z,58.31
2019-04-18T21:06:13.522Z,58.27
2019-04-18T21:08:48.558Z,58.50
2019-04-18T21:11:09.618Z,58.07
2019-04-18T21:13:37.961Z,59.19
2019-04-18T21:16:10.247Z,59.87
2019-04-18T21:18:40.381Z,58.95
2019-04-18T21:21:06.674Z,59.05
2019-04-18T21:23:35.542Z,59.53
2019-04-18T21:26:09.356Z,59.98
2019-04-18T21:28:39.500Z,60.28
2019-04-18T21:31:06.445Z,59.85
2019-04-18T21:33:37.280Z,60.86
2019-04-18T21:36:13.129Z,60.40
2019-04-18T21:38:45.124Z,60.59
2019-04-18T21:41:06.115Z,61.80
2019-04-18T21:43:34.870Z,62.66
2019-04-18T21:46:05.705Z,62.86
2019-04-18T21:48:33.299Z,63.16
2019-04-18T21:51:04.372Z,63.75
2019-04-18T21:53:32.494Z,63.94
2019-04-18T21:56:04.855Z,64.10
2019-04-18T21:58:46.938Z,65.00
2019-04-18T22:01:06.845Z,65.24
2019-04-18T22:03:44.717Z,65.39
2019-04-18T22:06:06.888Z,66.34
2019-04-18T22:08:36.666Z,66.33
2019-04-18T22:11:11.415Z,65.17
2019-04-18T22:13:35.473Z,66.04
2019-04-18T22:16:03.836Z,66.80
2019-04-18T22:18:32.223Z,66.83
2019-04-18T22:21:05.878Z,66.21
2019-04-18T22:23:33.095Z,67.75
2019-04-18T22:26:00.576Z,68.70
2019-04-18T22:28:34.319Z,69.99
2019-04-18T22:31:00.292Z,69.37
2019-04-18T22:33:34.700Z,69.69
2019-04-18T22:35:59.285Z,70.46
2019-04-18T22:38:34.254Z,68.73
2019-04-18T22:40:59.066Z,68.54
2019-04-18T22:43:30.193Z,67.92
2019-04-18T22:45:58.549Z,68.51
2019-04-18T22:48:31.826Z,65.85
2019-04-18T22:50:57.287Z,67.11
2019-04-18T22:53:26.867Z,66.57
2019-04-18T22:56:00.883Z,67.96
2019-04-18T22:58:25.353Z,67.41
2019-04-18T23:00:53.758Z,67.83
2019-04-18T23:03:23.275Z,68.58
2019-04-18T23:05:53.039Z,67.05
2019-04-18T23:08:28.759Z,69.39
2019-04-18T23:10:52.967Z,70.33
2019-04-18T23:13:26.702Z,71.33
2019-04-18T23:15:51.613Z,73.37
2019-04-18T23:18:23.577Z,73.73
2019-04-18T23:20:50.334Z,74.29
2019-04-18T23:23:20.638Z,75.63
2019-04-18T23:25:49.305Z,75.19
2019-04-18T23:28:21.461Z,76.65
2019-04-18T23:30:47.818Z,77.99
2019-04-18T23:33:18.856Z,77.45
2019-04-18T23:35:51.098Z,79.88
2019-04-18T23:38:26.085Z,81.46
2019-04-18T23:40:46.595Z,80.42
2019-04-18T23:43:17.581Z,82.69
2019-04-18T23:45:46.722Z,81.88
2019-04-18T23:48:15.208Z,83.33
2019-04-18T23:50:45.414Z,81.29
2019-04-18T23:53:14.823Z,81.68
2019-04-18T23:55:49.064Z,82.21
2019-04-18T23:58:14.196Z,81.19
